createdAt,value
2023-02-23T00:00:36.346Z,8.70
2023-02-23T00:03:04.401Z,7.00
2023-02-23T00:05:37.666Z,7.00
2023-02-23T00:08:06.158Z,7.00
2023-02-23T00:10:34.155Z,8.30
2023-02-23T00:13:02.436Z,7.10
2023-02-23T00:15:31.701Z,7.80
2023-02-23T00:17:59.961Z,7.00
2023-02-23T00:20:28.709Z,7.00
2023-02-23T00:22:57.484Z,7.10
2023-02-23T00:25:26.110Z,7.00
2023-02-23T00:27:54.770Z,6.90
2023-02-23T00:30:23.184Z,6.90
2023-02-23T00:32:53.436Z,6.90
2023-02-23T00:35:21.321Z,6.90
2023-02-23T00:37:50.709Z,7.00
2023-02-23T00:40:22.986Z,7.00
2023-02-23T00:42:52.284Z,7.30
2023-02-23T00:45:20.404Z,7.10
2023-02-23T00:47:48.946Z,7.10
2023-02-23T00:50:19.280Z,7.20
2023-02-23T00:52:47.186Z,7.20
2023-02-23T00:55:16.216Z,7.20
2023-02-23T00:57:44.113Z,7.20
2023-02-23T01:00:20.154Z,7.30
2023-02-23T01:02:48.975Z,7.30
2023-02-23T01:05:18.439Z,7.70
2023-02-23T01:07:47.369Z,7.30
2023-02-23T01:10:21.281Z,8.00
2023-02-23T01:12:50.344Z,9.40
2023-02-23T01:15:19.443Z,7.30
2023-02-23T01:17:48.300Z,7.30
2023-02-23T01:20:19.210Z,8.00
2023-02-23T01:22:49.456Z,7.40
2023-02-23T01:25:18.454Z,7.40
2023-02-23T01:27:46.840Z,7.50
2023-02-23T01:30:16.270Z,8.20
2023-02-23T01:32:44.111Z,7.50
2023-02-23T01:35:13.533Z,7.50
2023-02-23T01:37:43.941Z,7.70
2023-02-23T01:40:16.027Z,7.60
2023-02-23T01:42:46.890Z,7.60
2023-02-23T01:45:35.101Z,7.70
2023-02-23T01:48:07.137Z,7.60
2023-02-23T01:50:45.500Z,8.60
2023-02-23T01:53:15.396Z,7.90
2023-02-23T01:55:43.694Z,7.60
2023-02-23T01:58:17.142Z,7.70
2023-02-23T02:00:48.626Z,7.60
2023-02-23T02:03:25.084Z,7.60
2023-02-23T02:05:53.624Z,7.60
2023-02-23T02:08:24.431Z,7.60
2023-02-23T02:10:56.011Z,8.00
2023-02-23T02:13:28.093Z,7.60
2023-02-23T02:16:21.714Z,7.60
2023-02-23T02:19:05.952Z,7.60
2023-02-23T02:22:08.661Z,7.70
2023-02-23T02:25:21.865Z,7.70
2023-02-23T02:28:22.175Z,7.70
2023-02-23T02:31:15.534Z,7.70
2023-02-23T02:34:00.617Z,8.20
2023-02-23T02:36:58.576Z,8.70
2023-02-23T02:39:36.479Z,8.00
2023-02-23T02:42:13.670Z,7.70
2023-02-23T02:44:49.635Z,7.60
2023-02-23T02:47:27.838Z,7.70
2023-02-23T02:50:03.380Z,7.60
2023-02-23T02:52:36.689Z,8.80
2023-02-23T02:55:12.152Z,7.60
2023-02-23T02:57:41.806Z,7.60
2023-02-23T03:00:32.647Z,8.20
2023-02-23T03:03:18.163Z,7.60
2023-02-23T03:06:06.967Z,7.60
2023-02-23T03:08:59.703Z,8.60
2023-02-23T03:11:54.193Z,7.70
2023-02-23T03:14:50.901Z,7.60
2023-02-23T03:17:45.992Z,7.60
2023-02-23T03:20:37.576Z,7.60
2023-02-23T03:23:35.414Z,7.80
2023-02-23T03:26:27.501Z,7.60
2023-02-23T03:29:21.000Z,7.70
2023-02-23T03:32:11.641Z,7.60
2023-02-23T03:35:00.419Z,7.60
2023-02-23T03:37:48.837Z,7.60
2023-02-23T03:40:37.758Z,7.90
2023-02-23T03:43:28.224Z,7.60
2023-02-23T03:46:15.987Z,7.60
2023-02-23T03:49:04.883Z,7.80
2023-02-23T03:51:53.934Z,7.60
2023-02-23T03:54:47.582Z,7.60
2023-02-23T03:57:37.624Z,7.60
2023-02-23T04:00:29.320Z,7.60
2023-02-23T04:03:16.749Z,7.60
2023-02-23T04:06:03.822Z,7.60
2023-02-23T04:08:54.048Z,7.60
2023-02-23T04:11:47.174Z,7.60
2023-02-23T04:14:19.442Z,8.00
2023-02-23T04:16:48.672Z,7.60
2023-02-23T04:19:16.606Z,7.60
2023-02-23T04:21:44.472Z,7.60
2023-02-23T04:24:12.529Z,7.60
2023-02-23T04:26:40.535Z,8.00
2023-02-23T04:29:08.400Z,7.70
2023-02-23T04:31:36.381Z,9.20
2023-02-23T04:34:06.233Z,7.70
2023-02-23T04:36:34.198Z,7.70
2023-02-23T04:39:02.060Z,7.70
2023-02-23T04:41:30.034Z,8.40
2023-02-23T04:43:57.989Z,8.10
2023-02-23T04:46:25.938Z,7.90
2023-02-23T04:48:53.807Z,7.70
2023-02-23T04:51:23.024Z,7.70
2023-02-23T04:53:51.394Z,7.70
2023-02-23T04:56:19.269Z,7.70
2023-02-23T04:58:47.122Z,7.70
2023-02-23T05:01:15.038Z,7.70
2023-02-23T05:03:42.878Z,7.70
2023-02-23T05:06:12.191Z,7.90
2023-02-23T05:08:41.372Z,7.70
2023-02-23T05:11:09.443Z,7.70
2023-02-23T05:13:37.449Z,7.70
2023-02-23T05:16:05.744Z,8.20
2023-02-23T05:18:33.680Z,7.70
2023-02-23T05:21:06.743Z,7.60
2023-02-23T05:23:35.831Z,7.60
2023-02-23T05:26:06.488Z,7.60
2023-02-23T05:28:35.553Z,7.60
2023-02-23T05:31:04.604Z,7.60
2023-02-23T05:33:33.390Z,7.60
2023-02-23T05:36:01.449Z,7.60
2023-02-23T05:38:29.288Z,7.60
2023-02-23T05:40:57.136Z,7.50
2023-02-23T05:43:26.832Z,7.80
2023-02-23T05:45:54.681Z,8.10
2023-02-23T05:48:22.652Z,8.30
2023-02-23T05:50:50.528Z,7.50
2023-02-23T05:53:18.420Z,7.50
2023-02-23T05:55:46.289Z,8.00
2023-02-23T05:58:14.121Z,7.90
2023-02-23T06:00:43.297Z,7.50
2023-02-23T06:03:11.143Z,7.90
2023-02-23T06:05:39.022Z,7.50
2023-02-23T06:08:06.877Z,7.50
2023-02-23T06:10:34.748Z,7.40
2023-02-23T06:13:04.038Z,7.40
2023-02-23T06:15:32.772Z,7.40
2023-02-23T06:18:02.100Z,7.40
2023-02-23T06:20:30.000Z,7.30
2023-02-23T06:22:58.003Z,7.30
2023-02-23T06:25:25.866Z,7.80
2023-02-23T06:27:54.686Z,7.30
2023-02-23T06:30:23.677Z,7.30
2023-02-23T06:32:51.592Z,7.20
2023-02-23T06:35:20.962Z,7.30
2023-02-23T06:37:48.860Z,7.20
2023-02-23T06:40:17.055Z,7.20
2023-02-23T06:42:44.889Z,7.20
2023-02-23T06:45:14.203Z,7.20
2023-02-23T06:47:42.247Z,7.20
2023-02-23T06:50:11.778Z,7.40
2023-02-23T06:52:41.355Z,7.20
2023-02-23T06:55:10.709Z,7.10
2023-02-23T06:57:38.572Z,7.10
2023-02-23T07:00:07.500Z,7.10
2023-02-23T07:02:36.511Z,7.10
2023-02-23T07:05:05.047Z,7.30
2023-02-23T07:07:32.982Z,7.10
2023-02-23T07:10:02.207Z,7.40
2023-02-23T07:12:31.466Z,7.20
2023-02-23T07:14:59.462Z,7.20
2023-02-23T07:17:27.307Z,7.20
2023-02-23T07:19:55.376Z,7.30
2023-02-23T07:22:24.846Z,7.80
2023-02-23T07:24:52.715Z,7.30
2023-02-23T07:27:21.969Z,7.30
2023-02-23T07:29:49.781Z,7.30
2023-02-23T07:32:17.834Z,7.90
2023-02-23T07:34:47.695Z,7.40
2023-02-23T07:37:16.999Z,7.40
2023-02-23T07:39:45.015Z,7.50
2023-02-23T07:42:12.913Z,7.50
2023-02-23T07:44:42.091Z,7.50
2023-02-23T07:47:09.939Z,7.60
2023-02-23T07:49:37.862Z,7.60
2023-02-23T07:52:06.130Z,7.60
2023-02-23T07:54:34.714Z,7.70
2023-02-23T07:57:02.539Z,7.60
2023-02-23T07:59:31.559Z,7.60
2023-02-23T08:02:01.199Z,7.60
2023-02-23T08:04:29.075Z,7.60
2023-02-23T08:06:56.923Z,7.60
2023-02-23T08:09:25.844Z,7.70
2023-02-23T08:11:53.686Z,7.70
2023-02-23T08:14:23.553Z,7.70
2023-02-23T08:16:51.849Z,7.70
2023-02-23T08:19:22.765Z,7.80
2023-02-23T08:21:50.986Z,7.80
2023-02-23T08:24:19.086Z,7.80
2023-02-23T08:26:46.946Z,7.80
2023-02-23T08:29:14.813Z,7.80
2023-02-23T08:31:42.991Z,7.80
2023-02-23T08:34:11.121Z,7.90
2023-02-23T08:36:40.556Z,7.90
2023-02-23T08:39:10.014Z,8.00
2023-02-23T08:41:37.921Z,8.00
2023-02-23T08:44:05.976Z,8.00
2023-02-23T08:46:34.476Z,8.00
2023-02-23T08:49:02.921Z,8.00
2023-02-23T08:51:30.831Z,8.00
2023-02-23T08:54:00.037Z,8.10
2023-02-23T08:56:28.344Z,8.10
2023-02-23T08:58:56.634Z,8.10
2023-02-23T09:01:24.516Z,8.10
2023-02-23T09:03:52.435Z,8.30
2023-02-23T09:06:22.598Z,8.20
2023-02-23T09:08:50.691Z,8.20
2023-02-23T09:11:20.263Z,8.20
2023-02-23T09:13:48.525Z,8.10
2023-02-23T09:16:16.716Z,8.20
2023-02-23T09:18:45.815Z,8.50
2023-02-23T09:21:18.879Z,8.20
2023-02-23T09:23:48.081Z,8.20
2023-02-23T09:26:17.787Z,8.20
2023-02-23T09:28:47.801Z,8.30
2023-02-23T09:31:19.293Z,8.80
2023-02-23T09:33:47.374Z,8.30
2023-02-23T09:36:17.240Z,8.30
2023-02-23T09:38:46.074Z,8.30
2023-02-23T09:41:47.103Z,8.30
2023-02-23T09:44:24.941Z,8.30
2023-02-23T09:47:01.706Z,8.40
2023-02-23T09:49:33.436Z,8.40
2023-02-23T09:52:03.824Z,8.40
2023-02-23T09:54:35.401Z,8.40
2023-02-23T09:57:06.253Z,8.40
2023-02-23T09:59:36.325Z,8.50
2023-02-23T10:02:16.782Z,8.50
2023-02-23T10:04:47.938Z,8.60
2023-02-23T10:07:22.495Z,8.60
2023-02-23T10:10:01.781Z,8.60
2023-02-23T10:12:36.042Z,8.60
2023-02-23T10:15:15.192Z,8.50
2023-02-23T10:17:53.186Z,8.50
2023-02-23T10:20:28.275Z,8.50
2023-02-23T10:22:59.141Z,8.50
2023-02-23T10:25:30.962Z,8.50
2023-02-23T10:28:01.566Z,8.60
2023-02-23T10:30:33.623Z,8.60
2023-02-23T10:33:11.433Z,8.60
2023-02-23T10:35:40.696Z,8.60
2023-02-23T10:38:15.943Z,8.50
2023-02-23T10:40:46.063Z,8.50
2023-02-23T10:43:14.811Z,8.50
2023-02-23T10:45:46.802Z,8.50
2023-02-23T10:48:19.015Z,8.50
2023-02-23T10:50:49.848Z,8.50
2023-02-23T10:53:23.210Z,8.60
2023-02-23T10:56:03.874Z,8.60
2023-02-23T10:58:32.653Z,8.70
2023-02-23T11:01:04.372Z,8.70
2023-02-23T11:03:37.346Z,8.70
2023-02-23T11:06:05.607Z,8.80
2023-02-23T11:08:34.561Z,8.80
2023-02-23T11:11:08.847Z,8.80
2023-02-23T11:13:39.818Z,8.80
2023-02-23T11:16:13.452Z,8.80
2023-02-23T11:18:43.624Z,8.90
2023-02-23T11:21:22.637Z,8.90
2023-02-23T11:23:53.180Z,9.00
2023-02-23T11:26:32.204Z,9.00
2023-02-23T11:29:10.935Z,9.00
2023-02-23T11:31:40.867Z,9.00
2023-02-23T11:34:09.201Z,9.00
2023-02-23T11:36:38.975Z,9.20
2023-02-23T11:39:22.785Z,9.00
2023-02-23T11:42:10.815Z,9.00
2023-02-23T11:44:38.654Z,9.00
2023-02-23T11:47:16.552Z,9.00
2023-02-23T11:49:46.967Z,9.10
2023-02-23T11:52:17.283Z,9.20
2023-02-23T11:54:53.531Z,9.30
2023-02-23T11:57:23.438Z,9.40
2023-02-23T11:59:52.280Z,9.40
2023-02-23T12:02:24.977Z,9.40
2023-02-23T12:05:02.358Z,9.40
2023-02-23T12:07:38.749Z,9.40
2023-02-23T12:10:18.919Z,9.40
2023-02-23T12:12:56.591Z,9.40
2023-02-23T12:15:34.000Z,9.40
2023-02-23T12:18:09.337Z,9.40
2023-02-23T12:20:41.875Z,9.40
2023-02-23T12:23:13.508Z,9.40
2023-02-23T12:25:47.241Z,9.40
2023-02-23T12:28:21.486Z,9.60
2023-02-23T12:30:52.900Z,9.50
2023-02-23T12:33:34.222Z,9.50
2023-02-23T12:36:05.548Z,9.40
2023-02-23T12:38:45.191Z,9.40
2023-02-23T12:41:14.880Z,9.40
2023-02-23T12:43:51.360Z,9.40
2023-02-23T12:46:23.036Z,9.40
2023-02-23T12:49:02.274Z,9.40
2023-02-23T12:51:35.206Z,9.40
2023-02-23T12:54:03.518Z,9.30
2023-02-23T12:56:48.280Z,9.30
2023-02-23T12:59:26.083Z,9.30
2023-02-23T13:01:58.449Z,9.30
2023-02-23T13:05:04.691Z,9.30
2023-02-23T13:07:41.853Z,9.20
2023-02-23T13:10:20.368Z,9.20
2023-02-23T13:12:57.021Z,9.10
2023-02-23T13:15:32.551Z,9.10
2023-02-23T13:18:06.149Z,9.00
2023-02-23T13:20:39.811Z,9.00
2023-02-23T13:23:16.715Z,8.90
2023-02-23T13:25:54.261Z,8.80
2023-02-23T13:28:35.905Z,8.90
2023-02-23T13:31:05.949Z,8.80
2023-02-23T13:33:44.074Z,8.80
2023-02-23T13:36:17.952Z,8.80
2023-02-23T13:39:18.528Z,9.30
2023-02-23T13:41:52.559Z,8.80
2023-02-23T13:44:27.963Z,8.80
2023-02-23T13:47:02.234Z,8.80
2023-02-23T13:49:47.793Z,8.80
2023-02-23T13:52:24.463Z,8.80
2023-02-23T13:55:03.498Z,8.90
2023-02-23T13:57:32.889Z,8.60
2023-02-23T14:00:02.209Z,8.50
2023-02-23T14:02:41.014Z,8.40
2023-02-23T14:05:18.898Z,8.30
2023-02-23T14:07:52.592Z,8.20
2023-02-23T14:10:23.067Z,8.20
2023-02-23T14:13:24.718Z,8.20
2023-02-23T14:16:11.954Z,9.00
2023-02-23T14:18:55.343Z,8.10
2023-02-23T14:21:31.205Z,8.00
2023-02-23T14:24:17.400Z,8.00
2023-02-23T14:26:47.330Z,8.00
2023-02-23T14:29:28.166Z,8.00
2023-02-23T14:32:02.869Z,8.00
2023-02-23T14:34:51.019Z,8.00
2023-02-23T14:37:25.463Z,8.00
2023-02-23T14:39:57.860Z,8.00
2023-02-23T14:42:29.631Z,7.90
2023-02-23T14:44:59.214Z,7.90
2023-02-23T14:47:28.286Z,7.90
2023-02-23T14:50:04.319Z,7.90
2023-02-23T14:52:37.730Z,7.90
2023-02-23T14:55:23.980Z,7.90
2023-02-23T14:57:57.071Z,7.90
2023-02-23T15:00:28.149Z,7.80
2023-02-23T15:02:59.445Z,7.80
2023-02-23T15:05:30.390Z,7.80
2023-02-23T15:08:01.008Z,7.70
2023-02-23T15:10:33.855Z,7.60
2023-02-23T15:13:08.495Z,7.60
2023-02-23T15:15:39.383Z,7.60
2023-02-23T15:18:08.452Z,7.50
2023-02-23T15:23:05.007Z,7.50
2023-02-23T15:25:39.994Z,7.50
2023-02-23T15:28:25.091Z,7.60
2023-02-23T15:30:55.783Z,7.50
2023-02-23T15:33:28.381Z,7.40
2023-02-23T15:36:01.211Z,7.40
2023-02-23T15:38:42.886Z,7.30
2023-02-23T15:41:21.917Z,7.30
2023-02-23T15:43:50.247Z,7.30
2023-02-23T15:46:28.310Z,7.30
2023-02-23T15:49:03.224Z,7.30
2023-02-23T15:51:36.963Z,7.40
2023-02-23T15:54:13.742Z,7.40
2023-02-23T15:56:46.832Z,7.40
2023-02-23T15:59:20.763Z,7.40
2023-02-23T16:01:48.856Z,7.40
2023-02-23T16:04:19.814Z,7.40
2023-02-23T16:06:53.422Z,7.40
2023-02-23T16:09:30.023Z,7.60
2023-02-23T16:12:04.630Z,7.40
2023-02-23T16:14:36.183Z,7.40
2023-02-23T16:17:11.885Z,7.90
2023-02-23T16:19:41.805Z,7.40
2023-02-23T16:22:20.324Z,7.40
2023-02-23T16:24:54.511Z,7.50
2023-02-23T16:27:25.520Z,7.40
2023-02-23T16:30:00.230Z,8.10
2023-02-23T16:32:35.775Z,7.80
2023-02-23T16:35:12.709Z,7.30
2023-02-23T16:37:53.179Z,7.30
2023-02-23T16:40:21.069Z,7.30
2023-02-23T16:42:50.316Z,7.30
2023-02-23T16:45:18.828Z,7.20
2023-02-23T16:47:48.789Z,7.20
2023-02-23T16:50:21.138Z,7.20
2023-02-23T16:52:53.478Z,7.20
2023-02-23T16:55:25.768Z,7.40
2023-02-23T16:57:57.381Z,7.10
2023-02-23T17:00:28.635Z,7.10
2023-02-23T17:02:58.600Z,7.10
2023-02-23T17:05:26.551Z,7.10
2023-02-23T17:07:54.685Z,7.60
2023-02-23T17:10:27.994Z,7.00
2023-02-23T17:12:59.188Z,7.60
2023-02-23T17:15:32.208Z,8.50
2023-02-23T17:18:00.286Z,7.00
2023-02-23T17:20:29.521Z,7.00
2023-02-23T17:22:59.857Z,7.00
2023-02-23T17:25:28.467Z,7.00
2023-02-23T17:27:58.665Z,7.00
2023-02-23T17:30:27.335Z,8.50
2023-02-23T17:32:58.066Z,8.40
2023-02-23T17:35:26.761Z,7.90
2023-02-23T17:37:55.210Z,7.00
2023-02-23T17:40:28.532Z,7.00
2023-02-23T17:43:00.010Z,7.00
2023-02-23T17:45:28.868Z,7.70
2023-02-23T17:47:57.934Z,7.00
2023-02-23T17:50:27.382Z,5.50
2023-02-23T17:52:55.833Z,6.90
2023-02-23T17:55:24.197Z,6.90
2023-02-23T17:57:52.122Z,8.00
2023-02-23T18:00:21.965Z,8.60
2023-02-23T18:02:49.880Z,6.90
2023-02-23T18:05:18.289Z,6.90
2023-02-23T18:07:48.353Z,7.60
2023-02-23T18:10:17.055Z,6.90
2023-02-23T18:12:45.385Z,6.90
2023-02-23T18:15:13.413Z,7.10
2023-02-23T18:17:42.673Z,8.40
2023-02-23T18:20:15.134Z,8.10
2023-02-23T18:22:43.384Z,6.90
2023-02-23T18:25:21.948Z,6.90
2023-02-23T18:27:54.393Z,6.90
2023-02-23T18:30:23.346Z,6.90
2023-02-23T18:32:56.020Z,6.90
2023-02-23T18:35:24.019Z,7.50
2023-02-23T18:37:51.947Z,8.00
2023-02-23T18:40:23.673Z,8.90
2023-02-23T18:42:51.686Z,6.70
2023-02-23T18:45:19.666Z,6.50
2023-02-23T18:47:47.553Z,6.60
2023-02-23T18:50:19.012Z,7.80
2023-02-23T18:52:47.469Z,5.80
2023-02-23T18:55:16.267Z,5.90
2023-02-23T18:57:44.207Z,5.60
2023-02-23T19:00:14.618Z,5.50
2023-02-23T19:02:43.136Z,5.30
2023-02-23T19:05:12.833Z,5.90
2023-02-23T19:07:42.343Z,5.20
2023-02-23T19:10:12.202Z,5.20
2023-02-23T19:12:40.668Z,5.10
2023-02-23T19:15:10.000Z,5.60
2023-02-23T19:17:38.122Z,5.10
2023-02-23T19:20:12.784Z,5.10
2023-02-23T19:22:43.048Z,5.10
2023-02-23T19:25:14.939Z,5.10
2023-02-23T19:27:43.148Z,5.10
2023-02-23T19:30:12.345Z,5.10
2023-02-23T19:32:40.615Z,5.10
2023-02-23T19:35:11.071Z,5.00
2023-02-23T19:37:40.566Z,5.00
2023-02-23T19:40:11.745Z,5.10
2023-02-23T19:42:43.623Z,5.00
2023-02-23T19:45:11.613Z,6.50
2023-02-23T19:47:40.300Z,5.00
2023-02-23T19:50:09.740Z,6.00
2023-02-23T19:52:38.667Z,5.00
2023-02-23T19:55:07.755Z,5.10
2023-02-23T19:57:37.016Z,4.90
2023-02-23T20:00:11.502Z,4.90
2023-02-23T20:02:42.512Z,4.90
2023-02-23T20:05:11.445Z,6.50
2023-02-23T20:07:39.514Z,5.30
2023-02-23T20:10:10.366Z,5.90
2023-02-23T20:12:39.590Z,4.90
2023-02-23T20:15:08.847Z,5.70
2023-02-23T20:17:36.769Z,4.90
2023-02-23T20:20:06.260Z,4.80
2023-02-23T20:22:36.305Z,4.90
2023-02-23T20:25:05.890Z,5.20
2023-02-23T20:27:36.004Z,4.90
2023-02-23T20:30:06.028Z,5.40
2023-02-23T20:32:34.056Z,4.90
2023-02-23T20:35:02.011Z,4.90
2023-02-23T20:37:29.999Z,4.90
2023-02-23T20:39:57.877Z,4.90
2023-02-23T20:42:28.169Z,4.90
2023-02-23T20:44:56.316Z,6.40
2023-02-23T20:47:25.584Z,4.90
2023-02-23T20:49:53.504Z,5.70
2023-02-23T20:52:21.618Z,4.90
2023-02-23T20:54:49.468Z,6.20
2023-02-23T20:57:17.353Z,6.30
2023-02-23T20:59:45.225Z,4.80
2023-02-23T21:02:15.129Z,6.20
2023-02-23T21:04:44.470Z,4.80
2023-02-23T21:07:14.039Z,6.20
2023-02-23T21:09:42.411Z,6.60
2023-02-23T21:12:11.037Z,7.00
2023-02-23T21:14:38.970Z,4.80
2023-02-23T21:17:07.352Z,5.00
2023-02-23T21:19:36.325Z,4.80
2023-02-23T21:22:05.785Z,4.80
2023-02-23T21:24:34.674Z,4.70
2023-02-23T21:27:05.136Z,6.30
2023-02-23T21:29:33.109Z,4.80
2023-02-23T21:32:01.103Z,4.80
2023-02-23T21:34:29.226Z,5.70
2023-02-23T21:36:59.055Z,4.70
2023-02-23T21:39:28.421Z,6.90
2023-02-23T21:41:56.490Z,6.00
2023-02-23T21:44:24.351Z,6.30
2023-02-23T21:46:52.622Z,6.30
2023-02-23T21:49:21.055Z,4.70
2023-02-23T21:51:48.980Z,5.50
2023-02-23T21:54:18.501Z,6.60
2023-02-23T21:56:47.756Z,4.70
2023-02-23T21:59:15.649Z,5.40
2023-02-23T22:01:43.725Z,5.00
2023-02-23T22:04:15.240Z,6.00
2023-02-23T22:06:44.844Z,4.70
2023-02-23T22:09:15.604Z,4.70
2023-02-23T22:11:47.732Z,5.40
2023-02-23T22:14:17.883Z,4.60
2023-02-23T22:16:46.337Z,5.20
2023-02-23T22:19:14.402Z,4.60
2023-02-23T22:21:42.855Z,4.60
2023-02-23T22:24:12.113Z,5.70
2023-02-23T22:26:42.660Z,4.50
2023-02-23T22:29:12.111Z,4.50
2023-02-23T22:31:40.691Z,4.50
2023-02-23T22:34:09.004Z,4.50
2023-02-23T22:36:36.882Z,5.40
2023-02-23T22:39:07.335Z,4.50
2023-02-23T22:41:42.097Z,4.50
2023-02-23T22:44:13.582Z,4.60
2023-02-23T22:46:42.314Z,5.40
2023-02-23T22:49:11.782Z,5.70
2023-02-23T22:51:40.172Z,4.40
2023-02-23T22:54:08.637Z,4.40
2023-02-23T22:56:37.399Z,4.40
2023-02-23T22:59:06.269Z,5.10
2023-02-23T23:01:36.523Z,4.40
2023-02-23T23:04:09.979Z,4.40
2023-02-23T23:06:38.513Z,6.10
2023-02-23T23:09:07.722Z,4.30
2023-02-23T23:11:36.409Z,4.30
2023-02-23T23:14:09.061Z,4.20
2023-02-23T23:16:47.433Z,4.10
2023-02-23T23:19:17.621Z,5.70
2023-02-23T23:21:46.397Z,6.10
2023-02-23T23:24:15.464Z,5.40
2023-02-23T23:26:44.177Z,5.40
2023-02-23T23:29:15.593Z,3.90
2023-02-23T23:31:46.349Z,3.90
2023-02-23T23:34:16.432Z,3.80
2023-02-23T23:36:49.108Z,3.80
2023-02-23T23:39:18.028Z,5.20
2023-02-23T23:41:47.931Z,4.30
2023-02-23T23:44:17.686Z,3.80
2023-02-23T23:46:47.656Z,3.70
2023-02-23T23:49:17.466Z,3.70
2023-02-23T23:51:48.642Z,3.60
2023-02-23T23:54:18.859Z,3.60
2023-02-23T23:56:47.136Z,3.50
2023-02-23T23:59:17.145Z,3.50
